Time;durP1;ratioP1;P1;durP2;ratioP2;P2;SDS_P1;SDS_P2;PMS_P1;PMS_P2;Temp;Humidity;BMP_temperature;BMP_pressure;BME280_temperature;BME280_humidity;BME280_pressure;Samples;Min_cycle;Max_cycle;Signal;HPM_P1;HPM_P2
2023/12/22 00:04:56;;;;;;;21.65;5.00;;;;;;;;;;9902322;23;20053;-71
2023/12/22 00:09:52;;;;;;;24.50;4.38;;;;;;;;;;9909395;29;20049;-71
2023/12/22 00:14:48;;;;;;;16.73;3.75;;;;;;;;;;9881144;29;20106;-69
2023/12/22 00:19:45;;;;;;;25.85;5.28;;;;;;;;;;9857685;29;20142;-69
2023/12/22 00:24:41;;;;;;;12.85;3.65;;;;;;;;;;9869162;29;20219;-69
2023/12/22 00:29:38;;;;;;;14.85;3.47;;;;;;;;;;9868469;29;20061;-69
2023/12/22 00:34:34;;;;;;;20.15;4.60;;;;;;;;;;9878627;29;20053;-70
2023/12/22 00:39:31;;;;;;;21.63;4.72;;;;;;;;;;9863485;29;20041;-70
2023/12/22 00:44:29;;;;;;;13.40;4.68;;;;;;;;;;9859944;29;20042;-69
2023/12/22 00:49:25;;;;;;;22.88;4.00;;;;;;;;;;9863938;29;20069;-69
2023/12/22 00:54:22;;;;;;;25.80;3.88;;;;;;;;;;9858772;29;20057;-70
2023/12/22 00:59:18;;;;;;;26.05;4.97;;;;;;;;;;9869916;29;20053;-70
2023/12/22 01:04:16;;;;;;;20.02;5.60;;;;;;;;;;9873436;29;20053;-70
2023/12/22 01:09:14;;;;;;;24.73;4.70;;;;;;;;;;9857232;29;20104;-69
2023/12/22 01:14:13;;;;;;;14.70;5.32;;;;;;;;;;9856811;29;20057;-68
2023/12/22 01:19:09;;;;;;;21.08;5.40;;;;;;;;;;9870833;29;20505;-71
2023/12/22 01:24:05;;;;;;;14.63;3.90;;;;;;;;;;9862877;29;20045;-70
2023/12/22 01:29:02;;;;;;;14.35;5.00;;;;;;;;;;9866056;29;20105;-70
2023/12/22 01:33:58;;;;;;;11.85;5.70;;;;;;;;;;9881059;29;20077;-68
2023/12/22 01:38:55;;;;;;;12.43;5.28;;;;;;;;;;9881508;29;20558;-70
2023/12/22 01:43:51;;;;;;;7.60;6.20;;;;;;;;;;9861365;29;20050;-69
2023/12/22 01:48:47;;;;;;;6.03;5.30;;;;;;;;;;9868816;29;20109;-69
2023/12/22 01:53:45;;;;;;;10.48;5.88;;;;;;;;;;9864082;29;20056;-69
2023/12/22 01:58:41;;;;;;;14.00;5.97;;;;;;;;;;9867210;29;20421;-70
2023/12/22 02:03:38;;;;;;;15.20;7.32;;;;;;;;;;9871476;29;20403;-70
2023/12/22 02:08:34;;;;;;;8.07;5.45;;;;;;;;;;9858623;29;20076;-69
2023/12/22 02:13:31;;;;;;;8.80;5.55;;;;;;;;;;9865352;29;20053;-69
2023/12/22 02:18:33;;;;;;;8.57;5.30;;;;;;;;;;9855504;29;20045;-69
2023/12/22 02:23:29;;;;;;;8.60;5.50;;;;;;;;;;9864379;29;20486;-68
2023/12/22 02:28:25;;;;;;;7.18;5.85;;;;;;;;;;9876798;29;20057;-68
2023/12/22 02:33:23;;;;;;;9.07;6.18;;;;;;;;;;9875587;29;20163;-69
2023/12/22 02:38:19;;;;;;;9.10;6.10;;;;;;;;;;9875943;29;20483;-69
2023/12/22 02:43:16;;;;;;;12.43;6.47;;;;;;;;;;9880605;29;20160;-68
2023/12/22 02:48:12;;;;;;;12.50;6.13;;;;;;;;;;9869929;29;20058;-68
2023/12/22 02:53:09;;;;;;;14.77;5.82;;;;;;;;;;9868525;29;20053;-69
2023/12/22 02:58:05;;;;;;;9.70;5.47;;;;;;;;;;9876487;29;20049;-69
2023/12/22 03:03:01;;;;;;;10.48;5.38;;;;;;;;;;9861618;29;20046;-69
2023/12/22 03:07:58;;;;;;;8.45;5.13;;;;;;;;;;9875274;29;20152;-68
2023/12/22 03:12:54;;;;;;;6.35;4.55;;;;;;;;;;9879833;29;20114;-68
2023/12/22 03:17:50;;;;;;;7.47;4.80;;;;;;;;;;9852989;29;20579;-68
2023/12/22 03:22:47;;;;;;;7.82;4.45;;;;;;;;;;9877569;29;20046;-68
2023/12/22 03:27:44;;;;;;;10.02;4.80;;;;;;;;;;9878542;29;20064;-68
2023/12/22 03:32:40;;;;;;;4.70;4.25;;;;;;;;;;9858529;29;20050;-68
2023/12/22 03:37:36;;;;;;;5.65;4.10;;;;;;;;;;9855917;29;20464;-67
2023/12/22 03:42:33;;;;;;;6.45;3.95;;;;;;;;;;9868478;29;20058;-68
2023/12/22 03:47:29;;;;;;;7.90;4.38;;;;;;;;;;9867547;29;20073;-68
2023/12/22 03:52:26;;;;;;;6.00;4.40;;;;;;;;;;9879819;29;20054;-69
2023/12/22 03:57:22;;;;;;;8.88;5.13;;;;;;;;;;9876032;29;20437;-68
2023/12/22 04:02:19;;;;;;;8.80;5.00;;;;;;;;;;9853362;29;20901;-68
2023/12/22 04:07:15;;;;;;;15.40;5.78;;;;;;;;;;9882199;29;20053;-67
2023/12/22 04:12:11;;;;;;;22.23;6.20;;;;;;;;;;9855595;29;20518;-68
2023/12/22 04:17:08;;;;;;;11.90;5.97;;;;;;;;;;9866195;29;20060;-68
2023/12/22 04:22:04;;;;;;;9.82;5.18;;;;;;;;;;9870928;29;20412;-69
2023/12/22 04:27:01;;;;;;;11.50;5.90;;;;;;;;;;9882132;29;20057;-69
2023/12/22 04:31:57;;;;;;;13.55;5.88;;;;;;;;;;9883883;29;20060;-69
2023/12/22 04:36:53;;;;;;;9.70;5.45;;;;;;;;;;9868443;29;20467;-68
2023/12/22 04:41:50;;;;;;;15.82;6.85;;;;;;;;;;9878071;29;20552;-68
2023/12/22 04:46:46;;;;;;;8.38;5.40;;;;;;;;;;9862964;29;20053;-68
2023/12/22 04:51:42;;;;;;;14.10;6.22;;;;;;;;;;9880517;29;20058;-68
2023/12/22 04:56:39;;;;;;;14.73;6.32;;;;;;;;;;9876454;29;20069;-69
2023/12/22 05:01:35;;;;;;;12.57;5.82;;;;;;;;;;9867437;29;20460;-69
2023/12/22 05:06:31;;;;;;;14.82;5.53;;;;;;;;;;9867177;29;20077;-69
2023/12/22 05:11:28;;;;;;;7.85;4.85;;;;;;;;;;9872718;29;20054;-70
2023/12/22 05:16:24;;;;;;;11.10;5.72;;;;;;;;;;9870611;29;20053;-71
2023/12/22 05:21:21;;;;;;;9.15;6.95;;;;;;;;;;9860307;29;20796;-70
2023/12/22 05:26:18;;;;;;;11.20;7.18;;;;;;;;;;9878323;29;20137;-70
2023/12/22 05:31:16;;;;;;;15.05;7.93;;;;;;;;;;9872166;29;20062;-70
2023/12/22 05:36:12;;;;;;;8.65;6.45;;;;;;;;;;9877064;29;20058;-72
2023/12/22 05:41:09;;;;;;;7.55;6.63;;;;;;;;;;9862660;29;20057;-72
2023/12/22 05:46:05;;;;;;;17.83;7.78;;;;;;;;;;9865486;29;20061;-72
2023/12/22 05:51:07;;;;;;;11.18;7.18;;;;;;;;;;9855125;29;20057;-71
2023/12/22 05:56:04;;;;;;;11.37;7.30;;;;;;;;;;9849666;29;20408;-68
2023/12/22 06:01:00;;;;;;;10.43;7.50;;;;;;;;;;9868924;29;20064;-69
2023/12/22 06:05:57;;;;;;;10.60;7.57;;;;;;;;;;9858604;29;20518;-70
2023/12/22 06:15:57;;;;;;;13.68;8.52;;;;;;;;;;10323144;27;20720;-74
2023/12/22 06:20:54;;;;;;;10.77;8.40;;;;;;;;;;10294266;28;20056;-73
2023/12/22 06:25:50;;;;;;;9.23;8.20;;;;;;;;;;10319409;28;20695;-75
2023/12/22 06:30:47;;;;;;;10.90;8.68;;;;;;;;;;10331901;28;20056;-74
2023/12/22 06:35:44;;;;;;;22.75;9.55;;;;;;;;;;10324433;28;20066;-74
2023/12/22 06:40:41;;;;;;;15.15;8.35;;;;;;;;;;10327354;28;20040;-73
2023/12/22 06:45:37;;;;;;;16.98;8.85;;;;;;;;;;10334272;28;20072;-73
2023/12/22 06:50:36;;;;;;;23.42;8.85;;;;;;;;;;10335192;28;20074;-73
2023/12/22 06:56:11;;;;;;;;;;;;;;;;;;;;;
2023/12/22 07:01:34;;;;;;;19.88;6.97;;;;;;;;;;10181643;28;20053;-73
2023/12/22 07:06:32;;;;;;;21.05;7.50;;;;;;;;;;10212481;28;20258;-72
2023/12/22 07:11:28;;;;;;;14.30;6.60;;;;;;;;;;10219631;28;20104;-73
2023/12/22 07:16:33;;;;;;;22.23;7.50;;;;;;;;;;10212835;28;20128;-73
2023/12/22 07:21:30;;;;;;;21.05;8.77;;;;;;;;;;10218415;28;20093;-73
2023/12/22 07:26:27;;;;;;;16.50;7.78;;;;;;;;;;10192360;28;20046;-73
2023/12/22 07:31:23;;;;;;;23.83;8.30;;;;;;;;;;10189296;28;20141;-73
2023/12/22 07:36:21;;;;;;;22.38;7.10;;;;;;;;;;10189021;28;20468;-73
2023/12/22 07:41:18;;;;;;;14.27;7.82;;;;;;;;;;10186649;28;20046;-73
2023/12/22 07:46:19;;;;;;;26.02;9.10;;;;;;;;;;10193836;28;20049;-76
2023/12/22 07:51:16;;;;;;;19.55;8.70;;;;;;;;;;10207631;28;20041;-76
2023/12/22 07:56:12;;;;;;;16.77;9.93;;;;;;;;;;10168864;28;20042;-75
2023/12/22 08:01:09;;;;;;;23.45;9.60;;;;;;;;;;10172095;28;20050;-76
2023/12/22 08:06:05;;;;;;;15.18;8.25;;;;;;;;;;10194460;28;20498;-76
2023/12/22 08:11:04;;;;;;;13.23;7.28;;;;;;;;;;10184058;28;20105;-76
2023/12/22 08:16:01;;;;;;;11.88;8.50;;;;;;;;;;10197151;28;20062;-74
2023/12/22 08:20:57;;;;;;;12.77;8.82;;;;;;;;;;10188856;28;20038;-75
2023/12/22 08:25:54;;;;;;;17.88;9.43;;;;;;;;;;10194113;28;20056;-77
2023/12/22 08:30:50;;;;;;;16.05;9.48;;;;;;;;;;10178549;28;20847;-76
2023/12/22 08:35:47;;;;;;;12.65;8.32;;;;;;;;;;10179709;28;20517;-74
2023/12/22 08:40:43;;;;;;;18.17;10.10;;;;;;;;;;10188843;28;20464;-76
2023/12/22 08:45:39;;;;;;;9.80;7.68;;;;;;;;;;10187478;28;20057;-77
2023/12/22 08:50:36;;;;;;;10.63;7.78;;;;;;;;;;10170080;28;20524;-73
2023/12/22 08:55:32;;;;;;;20.48;8.73;;;;;;;;;;10177012;28;20501;-74
2023/12/22 09:00:29;;;;;;;18.00;6.20;;;;;;;;;;10180208;28;20088;-74
2023/12/22 09:05:25;;;;;;;9.80;6.25;;;;;;;;;;10187326;28;20125;-75
2023/12/22 09:10:22;;;;;;;12.32;6.38;;;;;;;;;;10181938;28;20100;-75
2023/12/22 09:15:18;;;;;;;11.73;6.35;;;;;;;;;;10188844;28;20053;-73
2023/12/22 09:20:15;;;;;;;6.80;6.13;;;;;;;;;;10169638;28;20405;-74
2023/12/22 09:25:11;;;;;;;15.23;5.95;;;;;;;;;;10170654;28;20112;-74
2023/12/22 09:30:07;;;;;;;15.20;6.40;;;;;;;;;;10181009;28;20572;-74
2023/12/22 09:35:04;;;;;;;11.48;6.07;;;;;;;;;;10170518;28;20502;-74
2023/12/22 09:40:00;;;;;;;12.45;5.95;;;;;;;;;;10179254;28;20049;-74
2023/12/22 09:44:58;;;;;;;12.82;6.28;;;;;;;;;;10305382;22;20049;-73
2023/12/22 09:49:55;;;;;;;17.65;5.63;;;;;;;;;;10242610;28;20053;-74
2023/12/22 09:54:54;;;;;;;17.50;5.53;;;;;;;;;;10203835;28;20069;-73
2023/12/22 09:59:51;;;;;;;13.77;5.70;;;;;;;;;;10188096;28;20052;-74
2023/12/22 10:04:48;;;;;;;14.60;5.15;;;;;;;;;;10182567;28;20034;-72
2023/12/22 10:09:47;;;;;;;8.55;5.07;;;;;;;;;;10192423;28;20042;-72
2023/12/22 10:14:43;;;;;;;17.13;6.22;;;;;;;;;;10184917;28;20042;-74
2023/12/22 10:19:39;;;;;;;12.95;6.32;;;;;;;;;;10187024;28;20050;-73
2023/12/22 10:24:36;;;;;;;22.65;8.07;;;;;;;;;;10182500;28;20064;-76
2023/12/22 10:29:33;;;;;;;15.45;6.65;;;;;;;;;;10195468;28;20058;-74
2023/12/22 10:34:30;;;;;;;12.70;6.63;;;;;;;;;;10189542;28;20049;-73
2023/12/22 10:39:27;;;;;;;18.73;7.05;;;;;;;;;;10198380;28;20034;-73
2023/12/22 10:44:24;;;;;;;18.13;7.60;;;;;;;;;;10184441;28;20045;-72
2023/12/22 10:49:21;;;;;;;15.93;6.82;;;;;;;;;;10170892;28;20058;-75
2023/12/22 10:54:18;;;;;;;21.13;7.50;;;;;;;;;;10178541;28;20042;-73
2023/12/22 10:59:22;;;;;;;13.23;7.22;;;;;;;;;;10188106;28;20049;-74
2023/12/22 11:04:20;;;;;;;17.05;7.65;;;;;;;;;;10191205;28;20049;-74
2023/12/22 11:09:17;;;;;;;10.80;9.68;;;;;;;;;;10192109;28;20623;-73
2023/12/22 11:14:13;;;;;;;17.13;8.18;;;;;;;;;;10191184;28;20085;-74
2023/12/22 11:19:10;;;;;;;19.02;8.73;;;;;;;;;;10191532;28;20049;-72
2023/12/22 11:24:08;;;;;;;22.48;9.27;;;;;;;;;;10192495;28;20050;-74
2023/12/22 11:29:05;;;;;;;18.40;9.48;;;;;;;;;;10175080;28;20521;-74
2023/12/22 11:34:02;;;;;;;14.23;9.27;;;;;;;;;;10175933;28;20506;-74
2023/12/22 11:39:07;;;;;;;12.63;9.48;;;;;;;;;;10179979;28;20046;-72
2023/12/22 11:44:05;;;;;;;17.83;9.55;;;;;;;;;;10190367;28;20064;-74
2023/12/22 11:49:01;;;;;;;13.13;8.85;;;;;;;;;;10185648;28;20073;-75
2023/12/22 11:53:58;;;;;;;14.35;7.80;;;;;;;;;;10191328;28;20048;-74
2023/12/22 11:58:57;;;;;;;15.48;8.85;;;;;;;;;;10187003;28;20042;-75
2023/12/22 12:03:56;;;;;;;15.50;8.20;;;;;;;;;;10196172;28;20056;-73
2023/12/22 12:08:56;;;;;;;18.08;7.20;;;;;;;;;;10184867;28;20768;-74
2023/12/22 12:13:52;;;;;;;12.05;6.45;;;;;;;;;;10180630;28;20038;-72
2023/12/22 12:18:52;;;;;;;15.18;7.30;;;;;;;;;;10187568;28;20064;-72
2023/12/22 12:23:49;;;;;;;14.90;7.47;;;;;;;;;;10179635;28;20476;-74
2023/12/22 12:28:47;;;;;;;16.42;7.50;;;;;;;;;;10191055;28;20088;-74
2023/12/22 12:33:44;;;;;;;15.77;6.68;;;;;;;;;;10186548;28;20042;-75
2023/12/22 12:38:41;;;;;;;7.63;5.93;;;;;;;;;;10181248;28;20044;-73
2023/12/22 12:43:40;;;;;;;16.42;7.75;;;;;;;;;;10181262;28;20061;-74
2023/12/22 12:48:37;;;;;;;22.77;8.60;;;;;;;;;;10173729;28;20051;-73
2023/12/22 12:53:35;;;;;;;12.48;8.00;;;;;;;;;;10183279;28;20037;-75
2023/12/22 12:58:32;;;;;;;14.18;8.65;;;;;;;;;;10186716;28;20065;-75
2023/12/22 13:03:29;;;;;;;15.43;10.23;;;;;;;;;;10190264;28;20104;-75
2023/12/22 13:08:25;;;;;;;13.27;10.02;;;;;;;;;;10185628;28;21596;-74
2023/12/22 13:13:43;;;;;;;18.87;11.30;;;;;;;;;;10186970;28;20050;-73
2023/12/22 13:18:40;;;;;;;;;;;;;;;;;;10184003;28;20513;-75
2023/12/22 13:23:36;;;;;;;19.73;10.68;;;;;;;;;;10188126;28;19921;-75
2023/12/22 13:28:32;;;;;;;14.60;12.05;;;;;;;;;;10184782;28;20458;-74
2023/12/22 13:44:57;;;;;;;17.40;11.55;;;;;;;;;;10267059;28;20037;-74
2023/12/22 13:50:07;;;;;;;20.52;13.32;;;;;;;;;;10251161;28;20110;-76
2023/12/22 13:55:43;;;;;;;17.20;12.30;;;;;;;;;;10260629;28;20037;-75
2023/12/22 14:00:53;;;;;;;22.42;11.23;;;;;;;;;;10167198;28;20061;-75
2023/12/22 14:06:36;;;;;;;13.20;11.25;;;;;;;;;;10231629;23;20047;-75
2023/12/22 14:12:14;;;;;;;25.05;11.95;;;;;;;;;;10199550;28;20062;-74
2023/12/22 14:18:00;;;;;;;;;;;;;;;;;;10193855;28;20050;-76
2023/12/22 14:29:27;;;;;;;15.48;11.23;;;;;;;;;;10189077;28;20057;-76
2023/12/22 14:35:22;;;;;;;11.75;10.27;;;;;;;;;;10179051;28;20136;-76
2023/12/22 14:40:48;;;;;;;16.52;11.60;;;;;;;;;;10041536;28;20058;-76
2023/12/22 14:46:21;;;;;;;17.08;10.60;;;;;;;;;;9921371;29;20053;-76
2023/12/22 14:51:53;;;;;;;12.25;11.00;;;;;;;;;;9896048;29;20457;-76
2023/12/22 14:57:14;;;;;;;15.30;11.30;;;;;;;;;;9957755;29;20147;-76
2023/12/22 15:02:27;;;;;;;16.50;10.70;;;;;;;;;;10016883;29;20083;-76
2023/12/22 15:07:51;;;;;;;16.00;10.45;;;;;;;;;;10021653;28;20063;-76
2023/12/22 15:13:45;;;;;;;15.48;10.90;;;;;;;;;;10009986;28;20047;-75
2023/12/22 15:19:16;;;;;;;11.90;10.55;;;;;;;;;;9981640;29;20563;-76
2023/12/22 15:24:56;;;;;;;11.75;9.57;;;;;;;;;;10190245;28;20694;-74
2023/12/22 15:30:41;;;;;;;11.07;9.32;;;;;;;;;;10184304;28;20057;-76
2023/12/22 15:35:57;;;;;;;14.30;9.77;;;;;;;;;;10173644;28;20048;-76
2023/12/22 15:41:15;;;;;;;17.15;10.30;;;;;;;;;;10186386;28;20050;-75
2023/12/22 15:46:34;;;;;;;11.45;9.18;;;;;;;;;;10186633;28;20038;-73
2023/12/22 15:51:55;;;;;;;14.93;9.40;;;;;;;;;;10177023;28;20092;-75
2023/12/22 15:56:56;;;;;;;14.05;10.55;;;;;;;;;;10209894;28;20048;-76
2023/12/22 16:01:55;;;;;;;14.85;11.68;;;;;;;;;;10189714;28;20092;-76
2023/12/22 16:06:55;;;;;;;15.32;10.93;;;;;;;;;;10179814;28;20046;-76
2023/12/22 16:11:57;;;;;;;10.93;9.90;;;;;;;;;;10192765;28;20477;-76
2023/12/22 16:16:57;;;;;;;12.35;10.43;;;;;;;;;;10195563;28;20430;-76
2023/12/22 16:21:58;;;;;;;13.55;10.93;;;;;;;;;;10185877;28;20046;-77
2023/12/22 16:26:54;;;;;;;13.85;11.02;;;;;;;;;;10187715;28;20048;-76
2023/12/22 16:32:06;;;;;;;19.20;10.60;;;;;;;;;;10186552;28;20049;-76
2023/12/22 16:37:20;;;;;;;21.70;12.27;;;;;;;;;;10188990;28;20054;-76
2023/12/22 16:42:30;;;;;;;18.60;11.80;;;;;;;;;;10183359;28;20045;-76
2023/12/22 16:47:32;;;;;;;12.30;11.20;;;;;;;;;;10194474;28;20497;-75
2023/12/22 16:52:39;;;;;;;20.30;11.13;;;;;;;;;;10196320;28;20131;-75
2023/12/22 16:57:39;;;;;;;10.50;9.50;;;;;;;;;;10200004;28;20042;-75
2023/12/22 17:02:50;;;;;;;12.38;10.52;;;;;;;;;;10183723;28;20046;-76
2023/12/22 17:08:18;;;;;;;14.45;11.30;;;;;;;;;;10193653;28;20042;-76
2023/12/22 17:13:36;;;;;;;16.15;11.60;;;;;;;;;;10181844;28;20115;-76
2023/12/22 17:18:49;;;;;;;15.60;11.48;;;;;;;;;;10175435;28;20079;-76
2023/12/22 17:24:02;;;;;;;14.60;10.57;;;;;;;;;;10186838;28;20899;-75
2023/12/22 17:29:07;;;;;;;10.38;9.55;;;;;;;;;;10185118;28;20222;-77
2023/12/22 17:34:03;;;;;;;11.55;10.55;;;;;;;;;;10196634;28;20096;-76
2023/12/22 17:39:02;;;;;;;10.88;9.98;;;;;;;;;;10190009;28;20073;-75
2023/12/22 17:44:02;;;;;;;;;;;;;;;;;;10184036;28;20068;-76
2023/12/22 17:48:59;;;;;;;11.48;10.10;;;;;;;;;;10192462;28;20012;-74
2023/12/22 17:53:56;;;;;;;11.98;10.00;;;;;;;;;;10185021;28;20448;-75
2023/12/22 17:58:53;;;;;;;12.25;10.52;;;;;;;;;;10172045;28;20085;-76
2023/12/22 18:03:53;;;;;;;18.42;13.38;;;;;;;;;;10177447;28;20065;-74
2023/12/22 18:08:50;;;;;;;16.65;12.30;;;;;;;;;;10178960;28;20049;-76
2023/12/22 18:13:46;;;;;;;12.80;10.68;;;;;;;;;;10187681;28;20529;-76
2023/12/22 18:18:43;;;;;;;15.50;11.65;;;;;;;;;;10191793;28;21649;-75
2023/12/22 18:23:39;;;;;;;15.60;11.20;;;;;;;;;;10182983;28;20077;-73
2023/12/22 18:28:39;;;;;;;11.85;10.63;;;;;;;;;;10185783;28;20158;-74
2023/12/22 18:33:35;;;;;;;11.10;10.00;;;;;;;;;;10196838;28;20049;-75
2023/12/22 18:38:32;;;;;;;10.45;9.15;;;;;;;;;;10185008;28;20053;-76
2023/12/22 18:43:28;;;;;;;16.30;9.13;;;;;;;;;;10187206;28;20038;-76
2023/12/22 18:48:24;;;;;;;12.88;9.95;;;;;;;;;;10192013;28;20050;-75
2023/12/22 18:53:23;;;;;;;9.73;8.80;;;;;;;;;;10178648;28;20677;-76
2023/12/22 18:58:20;;;;;;;13.70;9.57;;;;;;;;;;10174220;28;20050;-74
2023/12/22 19:03:25;;;;;;;8.77;7.97;;;;;;;;;;10187936;23;20124;-75
2023/12/22 19:08:22;;;;;;;8.57;7.78;;;;;;;;;;10143731;28;20105;-76
2023/12/22 19:13:18;;;;;;;7.55;6.90;;;;;;;;;;10139121;28;20043;-76
2023/12/22 19:18:15;;;;;;;8.88;7.22;;;;;;;;;;10138578;28;20050;-76
2023/12/22 19:23:11;;;;;;;7.05;6.47;;;;;;;;;;10129650;28;20102;-77
2023/12/22 19:28:08;;;;;;;7.03;6.32;;;;;;;;;;10142798;28;20145;-76
2023/12/22 19:33:05;;;;;;;9.05;7.03;;;;;;;;;;10141957;28;20042;-76
2023/12/22 19:38:02;;;;;;;9.50;7.57;;;;;;;;;;10125180;28;20043;-76
2023/12/22 19:42:58;;;;;;;10.25;8.25;;;;;;;;;;10135607;28;20125;-74
2023/12/22 19:47:54;;;;;;;9.40;7.82;;;;;;;;;;10139034;28;20047;-76
2023/12/22 19:52:51;;;;;;;13.15;7.88;;;;;;;;;;10131513;28;20045;-75
2023/12/22 19:57:48;;;;;;;10.13;7.50;;;;;;;;;;10143706;28;20053;-76
2023/12/22 20:07:56;;;;;;;9.15;7.60;;;;;;;;;;8530811;26;20505;-73
2023/12/22 20:12:52;;;;;;;14.20;9.10;;;;;;;;;;10193866;28;20068;-76
2023/12/22 20:17:48;;;;;;;14.98;8.23;;;;;;;;;;10200460;28;20049;-76
2023/12/22 20:22:45;;;;;;;13.30;8.45;;;;;;;;;;10205373;28;20045;-76
2023/12/22 20:27:41;;;;;;;11.77;8.73;;;;;;;;;;10201131;28;20058;-74
2023/12/22 20:32:39;;;;;;;15.07;8.85;;;;;;;;;;10213190;28;20627;-73
2023/12/22 20:37:36;;;;;;;15.32;8.77;;;;;;;;;;10181748;28;20132;-74
2023/12/22 20:42:32;;;;;;;10.57;8.43;;;;;;;;;;10184913;28;20105;-75
2023/12/22 20:47:29;;;;;;;15.50;8.00;;;;;;;;;;10209848;28;20050;-76
2023/12/22 20:52:25;;;;;;;13.43;7.18;;;;;;;;;;10194797;28;20116;-76
2023/12/22 20:57:23;;;;;;;7.32;6.25;;;;;;;;;;10207615;28;20057;-76
2023/12/22 21:02:20;;;;;;;12.43;6.60;;;;;;;;;;10190569;28;20038;-76
2023/12/22 21:07:23;;;;;;;11.25;7.30;;;;;;;;;;10203718;28;20057;-75
2023/12/22 21:12:20;;;;;;;12.93;7.65;;;;;;;;;;10199970;28;20099;-73
2023/12/22 21:17:18;;;;;;;9.68;7.32;;;;;;;;;;10194740;28;20390;-76
2023/12/22 21:22:14;;;;;;;10.65;7.38;;;;;;;;;;10187775;28;20121;-75
2023/12/22 21:27:10;;;;;;;9.35;7.90;;;;;;;;;;10202293;28;20069;-75
2023/12/22 21:37:19;;;;;;;7.72;6.75;;;;;;;;;;10172727;28;20117;-75
2023/12/22 21:42:16;;;;;;;12.77;6.35;;;;;;;;;;10189092;28;20056;-74
2023/12/22 21:47:13;;;;;;;10.02;6.00;;;;;;;;;;10187788;28;20042;-75
2023/12/22 21:52:10;;;;;;;13.57;6.75;;;;;;;;;;10180378;28;20037;-75
2023/12/22 21:57:06;;;;;;;12.73;7.13;;;;;;;;;;10183715;28;20048;-74
2023/12/22 22:02:02;;;;;;;12.25;6.80;;;;;;;;;;10179632;28;20057;-75
2023/12/22 22:06:59;;;;;;;8.98;8.15;;;;;;;;;;10201762;28;20140;-75
2023/12/22 22:11:55;;;;;;;8.90;8.10;;;;;;;;;;10184995;28;20532;-75
2023/12/22 22:16:51;;;;;;;10.73;9.57;;;;;;;;;;10189773;28;20525;-72
2023/12/22 22:21:48;;;;;;;13.50;9.82;;;;;;;;;;10196670;28;20046;-74
2023/12/22 22:26:44;;;;;;;9.68;8.77;;;;;;;;;;10196971;28;20053;-74
2023/12/22 22:31:41;;;;;;;14.07;8.60;;;;;;;;;;10184920;28;20437;-74
2023/12/22 22:36:37;;;;;;;9.98;7.80;;;;;;;;;;10193980;28;20129;-75
2023/12/22 22:41:34;;;;;;;9.63;8.60;;;;;;;;;;10202370;28;20060;-75
2023/12/22 22:46:30;;;;;;;7.97;7.28;;;;;;;;;;10190217;28;20628;-73
2023/12/22 22:51:26;;;;;;;10.75;7.85;;;;;;;;;;10176552;28;20113;-75
2023/12/22 22:56:23;;;;;;;12.85;7.35;;;;;;;;;;10193342;28;20042;-73
2023/12/22 23:01:19;;;;;;;8.15;7.35;;;;;;;;;;10195905;28;20049;-74
2023/12/22 23:06:16;;;;;;;10.25;6.53;;;;;;;;;;10188729;28;20080;-72
2023/12/22 23:11:13;;;;;;;8.73;6.18;;;;;;;;;;10190030;28;20053;-76
2023/12/22 23:16:09;;;;;;;8.95;6.60;;;;;;;;;;10208761;28;20152;-73
2023/12/22 23:21:06;;;;;;;9.73;7.22;;;;;;;;;;10188077;28;20088;-73
2023/12/22 23:26:02;;;;;;;9.48;5.93;;;;;;;;;;10187852;28;20092;-70
2023/12/22 23:30:59;;;;;;;7.80;7.00;;;;;;;;;;10186142;28;20421;-72
2023/12/22 23:35:55;;;;;;;10.18;6.68;;;;;;;;;;10181317;28;20108;-70
2023/12/22 23:40:51;;;;;;;18.10;7.38;;;;;;;;;;10180158;28;20096;-69
2023/12/22 23:45:48;;;;;;;10.57;7.15;;;;;;;;;;10205261;28;20128;-70
2023/12/22 23:50:44;;;;;;;10.70;7.20;;;;;;;;;;10201345;28;20046;-70
2023/12/22 23:55:40;;;;;;;8.82;7.43;;;;;;;;;;10194418;28;20468;-70
